createdAt,value
2019-05-25T00:00:42.580Z,99257.36
2019-05-25T00:03:03.406Z,99259.22
2019-05-25T00:05:24.663Z,99256.76
2019-05-25T00:07:45.425Z,99254.86
2019-05-25T00:10:06.358Z,99257.57
2019-05-25T00:12:27.158Z,99256.22
2019-05-25T00:14:47.821Z,99265.94
2019-05-25T00:17:09.238Z,99258.35
2019-05-25T00:19:29.854Z,99261.87
2019-05-25T00:21:50.432Z,99256.45
2019-05-25T00:24:12.742Z,99263.22
2019-05-25T00:26:33.542Z,99258.35
2019-05-25T00:28:54.734Z,99258.56
2019-05-25T00:31:15.718Z,99264.82
2019-05-25T00:33:37.170Z,99261.27
2019-05-25T00:35:58.418Z,99261.27
2019-05-25T00:38:19.542Z,99256.39
2019-05-25T00:40:40.704Z,99268.03
2019-05-25T00:43:01.714Z,99268.58
2019-05-25T00:45:22.441Z,99266.08
2019-05-25T00:47:43.877Z,99264.52
2019-05-25T00:50:04.754Z,99259.31
2019-05-25T00:52:25.758Z,99261.20
2019-05-25T00:54:46.528Z,99253.63
2019-05-25T00:57:07.991Z,99254.13
2019-05-25T00:59:28.291Z,99261.20
2019-05-25T01:01:49.308Z,99254.44
2019-05-25T01:04:10.015Z,99254.13
2019-05-25T01:06:31.210Z,99259.04
2019-05-25T01:08:52.216Z,99260.91
2019-05-25T01:11:13.328Z,99259.55
2019-05-25T01:13:33.711Z,99259.04
2019-05-25T01:15:55.178Z,99260.91
2019-05-25T01:18:15.782Z,99260.59
2019-05-25T01:20:36.585Z,99259.79
2019-05-25T01:22:57.035Z,99260.59
2019-05-25T01:25:17.823Z,99260.59
2019-05-25T01:27:38.291Z,99265.71
2019-05-25T01:30:02.412Z,99266.02
2019-05-25T01:32:22.803Z,99262.19
2019-05-25T01:34:44.171Z,99263.84
2019-05-25T01:37:04.641Z,99265.71
2019-05-25T01:39:25.350Z,99264.90
2019-05-25T01:41:46.055Z,99270.31
2019-05-25T01:44:06.670Z,99267.61
2019-05-25T01:46:27.740Z,99266.77
2019-05-25T01:48:48.714Z,99267.30
2019-05-25T01:51:09.695Z,99264.59
2019-05-25T01:53:31.134Z,99263.24
2019-05-25T01:55:52.201Z,99256.47
2019-05-25T01:58:13.436Z,99259.99
2019-05-25T02:00:34.367Z,99260.23
2019-05-25T02:02:55.702Z,99264.59
2019-05-25T02:05:16.764Z,99256.17
2019-05-25T02:07:37.649Z,99260.78
2019-05-25T02:09:58.707Z,99262.13
2019-05-25T02:12:20.054Z,99263.98
2019-05-25T02:14:40.490Z,99267.54
2019-05-25T02:17:01.895Z,99266.70
2019-05-25T02:19:22.816Z,99271.30
2019-05-25T02:21:44.262Z,99275.36
2019-05-25T02:24:04.609Z,99271.00
2019-05-25T02:26:25.422Z,99274.01
2019-05-25T02:28:47.003Z,99271.81
2019-05-25T02:31:08.249Z,99271.30
2019-05-25T02:33:29.347Z,99272.02
2019-05-25T02:35:49.632Z,99273.70
2019-05-25T02:38:10.714Z,99274.18
2019-05-25T02:40:31.470Z,99272.02
2019-05-25T02:42:52.205Z,99272.83
2019-05-25T02:45:13.360Z,99277.43
2019-05-25T02:47:33.662Z,99276.58
2019-05-25T02:49:54.179Z,99276.58
2019-05-25T02:52:14.958Z,99280.14
2019-05-25T02:54:35.959Z,99277.13
2019-05-25T02:56:57.667Z,99286.36
2019-05-25T02:59:18.089Z,99281.73
2019-05-25T03:01:39.248Z,99284.44
2019-05-25T03:03:59.771Z,99283.08
2019-05-25T03:06:21.182Z,99282.23
2019-05-25T03:08:42.562Z,99283.59
2019-05-25T03:11:03.182Z,99281.73
2019-05-25T03:13:24.303Z,99284.13
2019-05-25T03:15:45.729Z,99285.19
2019-05-25T03:18:06.607Z,99290.36
2019-05-25T03:20:27.353Z,99289.55
2019-05-25T03:22:48.628Z,99288.70
2019-05-25T03:25:09.767Z,99291.11
2019-05-25T03:27:30.994Z,99290.05
2019-05-25T03:29:52.512Z,99290.05
2019-05-25T03:32:13.858Z,99289.75
2019-05-25T03:34:34.671Z,99283.52
2019-05-25T03:36:55.269Z,99286.23
2019-05-25T03:39:16.039Z,99291.64
2019-05-25T03:41:37.159Z,99289.75
2019-05-25T03:43:57.901Z,99288.94
2019-05-25T03:46:18.499Z,99289.45
2019-05-25T03:48:39.542Z,99293.51
2019-05-25T03:51:00.677Z,99297.56
2019-05-25T03:53:21.329Z,99300.00
2019-05-25T03:55:42.130Z,99309.75
2019-05-25T03:58:02.883Z,99314.34
2019-05-25T04:00:23.626Z,99317.05
2019-05-25T04:02:44.333Z,99318.95
2019-05-25T04:05:04.796Z,99322.47
2019-05-25T04:07:26.315Z,99324.36
2019-05-25T04:09:47.164Z,99324.36
2019-05-25T04:12:07.868Z,99327.95
2019-05-25T04:14:29.023Z,99335.86
2019-05-25T04:16:50.023Z,99333.73
2019-05-25T04:19:11.286Z,99336.78
2019-05-25T04:21:32.120Z,99333.86
2019-05-25T04:23:53.250Z,99331.46
2019-05-25T04:26:21.872Z,99337.99
2019-05-25T04:28:36.215Z,99335.59
2019-05-25T04:30:57.199Z,99334.53
2019-05-25T04:33:18.723Z,99343.78
2019-05-25T04:35:39.360Z,99346.55
2019-05-25T04:37:59.779Z,99345.20
2019-05-25T04:40:23.007Z,99350.10
2019-05-25T04:42:42.896Z,99347.46
2019-05-25T04:45:03.263Z,99351.28
2019-05-25T04:47:26.977Z,99352.64
2019-05-25T04:49:46.643Z,99355.95
2019-05-25T04:52:07.570Z,99353.25
2019-05-25T04:54:28.239Z,99366.24
2019-05-25T04:56:49.206Z,99365.43
2019-05-25T04:59:10.370Z,99372.50
2019-05-25T05:01:31.104Z,99367.09
2019-05-25T05:03:52.224Z,99367.90
2019-05-25T05:06:13.243Z,99367.09
2019-05-25T05:08:35.758Z,99366.55
2019-05-25T05:10:56.221Z,99368.75
2019-05-25T05:13:16.691Z,99369.25
2019-05-25T05:15:37.595Z,99368.75
2019-05-25T05:17:58.677Z,99370.91
2019-05-25T05:20:19.783Z,99368.20
2019-05-25T05:22:40.329Z,99377.68
2019-05-25T05:25:01.735Z,99378.22
2019-05-25T05:27:22.623Z,99369.56
2019-05-25T05:29:43.651Z,99367.90
2019-05-25T05:32:04.567Z,99364.69
2019-05-25T05:34:25.689Z,99367.39
2019-05-25T05:36:46.644Z,99372.27
2019-05-25T05:39:07.572Z,99380.39
2019-05-25T05:41:31.055Z,99377.68
2019-05-25T05:43:49.715Z,99377.68
2019-05-25T05:46:10.450Z,99379.58
2019-05-25T05:48:31.729Z,99382.59
2019-05-25T05:50:52.846Z,99382.05
2019-05-25T05:53:13.838Z,99381.74
2019-05-25T05:55:34.248Z,99381.23
2019-05-25T05:57:55.038Z,99386.95
2019-05-25T06:00:15.979Z,99383.41
2019-05-25T06:02:37.023Z,99382.05
2019-05-25T06:04:57.768Z,99384.75
2019-05-25T06:07:18.390Z,99386.66
2019-05-25T06:09:39.036Z,99387.46
2019-05-25T06:12:00.147Z,99389.05
2019-05-25T06:14:20.728Z,99392.58
2019-05-25T06:16:41.822Z,99395.28
2019-05-25T06:19:02.689Z,99393.12
2019-05-25T06:21:23.599Z,99402.59
2019-05-25T06:23:44.731Z,99396.33
2019-05-25T06:26:05.592Z,99396.88
2019-05-25T06:28:26.088Z,99393.05
2019-05-25T06:30:47.171Z,99393.86
2019-05-25T06:33:07.841Z,99394.91
2019-05-25T06:35:29.026Z,99400.02
2019-05-25T06:37:49.790Z,99404.63
2019-05-25T06:40:10.627Z,99409.20
2019-05-25T06:42:31.834Z,99411.09
2019-05-25T06:44:52.704Z,99407.53
2019-05-25T06:47:13.955Z,99408.89
2019-05-25T06:49:34.399Z,99409.73
2019-05-25T06:51:55.587Z,99405.23
2019-05-25T06:54:16.989Z,99413.42
2019-05-25T06:56:37.867Z,99414.78
2019-05-25T06:58:58.438Z,99414.03
2019-05-25T07:01:19.312Z,99408.08
2019-05-25T07:03:40.697Z,99404.92
2019-05-25T07:06:01.271Z,99412.81
2019-05-25T07:08:22.255Z,99410.95
2019-05-25T07:10:43.332Z,99412.51
2019-05-25T07:13:04.200Z,99418.23
2019-05-25T07:15:25.062Z,99413.86
2019-05-25T07:17:45.771Z,99430.41
2019-05-25T07:20:06.291Z,99425.68
2019-05-25T07:22:27.024Z,99422.77
2019-05-25T07:24:48.305Z,99425.80
2019-05-25T07:27:09.098Z,99429.36
2019-05-25T07:29:29.847Z,99423.44
2019-05-25T07:33:46.389Z,99421.00
2019-05-25T07:36:08.079Z,99425.05
2019-05-25T07:38:29.869Z,99427.69
2019-05-25T07:40:50.640Z,99429.15
2019-05-25T07:43:11.617Z,99428.11
2019-05-25T07:45:32.211Z,99432.34
2019-05-25T07:47:53.851Z,99427.45
2019-05-25T07:50:15.300Z,99427.89
2019-05-25T07:52:36.703Z,99422.61
2019-05-25T07:54:57.744Z,99431.81
2019-05-25T07:57:18.429Z,99425.57
2019-05-25T07:59:39.419Z,99430.41
2019-05-25T08:02:00.884Z,99429.45
2019-05-25T08:04:22.211Z,99430.02
2019-05-25T08:06:43.411Z,99429.84
2019-05-25T08:09:04.469Z,99435.22
2019-05-25T08:11:25.303Z,99439.00
2019-05-25T08:13:46.031Z,99432.89
2019-05-25T08:16:06.824Z,99438.43
2019-05-25T08:18:27.841Z,99434.75
2019-05-25T08:20:48.949Z,99437.05
2019-05-25T08:23:09.695Z,99437.22
2019-05-25T08:25:30.817Z,99441.31
2019-05-25T08:27:51.723Z,99440.97
2019-05-25T08:30:15.112Z,99440.90
2019-05-25T08:32:35.644Z,99445.14
2019-05-25T08:34:57.054Z,99449.11
2019-05-25T08:37:18.283Z,99440.84
2019-05-25T08:39:38.954Z,99441.47
2019-05-25T08:42:00.493Z,99433.97
2019-05-25T08:44:21.144Z,99440.58
2019-05-25T08:46:42.992Z,99438.80
2019-05-25T08:49:03.455Z,99449.19
2019-05-25T08:51:24.286Z,99445.59
2019-05-25T08:53:46.694Z,99445.47
2019-05-25T08:56:06.891Z,99442.60
2019-05-25T08:58:27.703Z,99444.95
2019-05-25T09:00:48.363Z,99448.34
2019-05-25T09:03:09.078Z,99444.91
2019-05-25T09:05:29.813Z,99443.02
2019-05-25T09:07:50.777Z,99443.12
2019-05-25T09:10:11.888Z,99447.75
2019-05-25T09:12:32.739Z,99445.52
2019-05-25T09:14:53.754Z,99442.88
2019-05-25T09:17:15.454Z,99452.43
2019-05-25T09:19:36.842Z,99456.87
2019-05-25T09:22:02.668Z,99448.31
2019-05-25T09:24:20.455Z,99457.05
2019-05-25T09:26:41.730Z,99447.34
2019-05-25T09:29:04.882Z,99452.83
2019-05-25T09:31:25.006Z,99457.27
2019-05-25T09:33:46.027Z,99464.03
2019-05-25T09:36:06.608Z,99455.71
2019-05-25T09:38:27.732Z,99461.20
2019-05-25T09:40:48.719Z,99456.73
2019-05-25T09:43:08.972Z,99463.27
2019-05-25T09:45:29.820Z,99457.62
2019-05-25T09:47:50.734Z,99457.72
2019-05-25T09:50:11.673Z,99461.78
2019-05-25T09:52:32.416Z,99459.14
2019-05-25T09:54:55.709Z,99458.70
2019-05-25T09:57:15.350Z,99457.93
2019-05-25T09:59:35.933Z,99453.36
2019-05-25T10:01:57.031Z,99460.44
2019-05-25T10:04:17.811Z,99459.39
2019-05-25T10:06:38.935Z,99456.14
2019-05-25T10:09:00.098Z,99450.19
2019-05-25T10:11:20.994Z,99458.61
2019-05-25T10:13:41.777Z,99455.33
2019-05-25T10:16:02.884Z,99462.16
2019-05-25T10:18:23.669Z,99463.59
2019-05-25T10:20:44.487Z,99462.23
2019-05-25T10:23:05.370Z,99465.25
2019-05-25T10:25:25.693Z,99464.81
2019-05-25T10:27:46.163Z,99463.45
2019-05-25T10:30:07.125Z,99461.80
2019-05-25T10:32:27.727Z,99462.84
2019-05-25T10:34:48.231Z,99455.39
2019-05-25T10:37:08.689Z,99459.22
2019-05-25T10:39:29.413Z,99455.16
2019-05-25T10:41:50.689Z,99447.58
2019-05-25T10:44:11.391Z,99449.98
2019-05-25T10:46:32.241Z,99447.58
2019-05-25T10:48:53.362Z,99451.95
2019-05-25T10:51:14.893Z,99454.48
2019-05-25T10:53:35.646Z,99449.23
2019-05-25T10:55:56.494Z,99448.46
2019-05-25T10:58:17.316Z,99444.70
2019-05-25T11:00:38.025Z,99448.02
2019-05-25T11:02:58.762Z,99444.56
2019-05-25T11:05:19.460Z,99441.62
2019-05-25T11:07:40.446Z,99437.86
2019-05-25T11:10:02.115Z,99447.72
2019-05-25T11:12:25.887Z,99441.31
2019-05-25T11:14:44.611Z,99441.72
2019-05-25T11:17:05.600Z,99442.29
2019-05-25T11:19:26.977Z,99444.55
2019-05-25T11:21:48.261Z,99443.20
2019-05-25T11:24:09.408Z,99441.09
2019-05-25T11:26:30.121Z,99440.66
2019-05-25T11:28:51.703Z,99433.95
2019-05-25T11:31:13.017Z,99438.02
2019-05-25T11:33:36.301Z,99439.88
2019-05-25T11:35:55.607Z,99442.28
2019-05-25T11:38:18.219Z,99436.28
2019-05-25T11:40:39.181Z,99430.39
2019-05-25T11:42:59.727Z,99430.48
2019-05-25T11:45:20.207Z,99427.23
2019-05-25T11:47:40.655Z,99434.01
2019-05-25T11:50:01.855Z,99432.66
2019-05-25T11:52:22.627Z,99432.66
2019-05-25T11:54:43.034Z,99428.07
2019-05-25T11:57:03.508Z,99423.03
2019-05-25T11:59:24.456Z,99425.23
2019-05-25T12:01:45.670Z,99430.42
2019-05-25T12:04:07.234Z,99428.99
2019-05-25T12:06:28.091Z,99425.00
2019-05-25T12:08:48.704Z,99428.00
2019-05-25T12:11:09.443Z,99422.55
2019-05-25T12:15:52.430Z,99417.81
2019-05-25T12:18:13.390Z,99416.13
2019-05-25T12:20:34.629Z,99420.58
2019-05-25T12:22:55.586Z,99415.70
2019-05-25T12:25:16.173Z,99414.55
2019-05-25T12:27:38.341Z,99418.92
2019-05-25T12:29:59.835Z,99414.63
2019-05-25T12:32:20.933Z,99411.25
2019-05-25T12:34:42.060Z,99419.00
2019-05-25T12:37:03.541Z,99419.34
2019-05-25T12:39:26.573Z,99417.27
2019-05-25T12:41:46.455Z,99412.11
2019-05-25T12:44:08.190Z,99405.63
2019-05-25T12:46:28.868Z,99407.44
2019-05-25T12:48:50.003Z,99402.58
2019-05-25T12:51:10.731Z,99404.14
2019-05-25T12:53:31.595Z,99399.48
2019-05-25T12:55:52.087Z,99409.28
2019-05-25T12:58:12.974Z,99402.88
2019-05-25T13:00:34.087Z,99413.23
2019-05-25T13:02:54.491Z,99400.58
2019-05-25T13:05:14.894Z,99403.61
2019-05-25T13:07:35.783Z,99406.16
2019-05-25T13:09:56.592Z,99404.12
2019-05-25T13:12:17.614Z,99399.25
2019-05-25T13:14:39.018Z,99391.38
2019-05-25T13:16:59.789Z,99394.54
2019-05-25T13:19:20.729Z,99385.68
2019-05-25T13:21:41.509Z,99393.73
2019-05-25T13:24:01.842Z,99390.93
2019-05-25T13:26:23.191Z,99386.11
2019-05-25T13:28:43.769Z,99384.52
2019-05-25T13:31:11.886Z,99397.82
2019-05-25T13:33:27.561Z,99392.84
2019-05-25T13:35:48.263Z,99397.03
2019-05-25T13:38:09.683Z,99393.27
2019-05-25T13:40:30.891Z,99392.72
2019-05-25T13:42:51.978Z,99387.22
2019-05-25T13:45:13.212Z,99394.75
2019-05-25T13:47:34.947Z,99394.75
2019-05-25T13:49:55.586Z,99388.01
2019-05-25T13:52:16.334Z,99389.27
2019-05-25T13:54:37.183Z,99389.75
2019-05-25T13:56:58.354Z,99389.15
2019-05-25T13:59:18.958Z,99394.27
2019-05-25T14:01:40.040Z,99390.91
2019-05-25T14:04:01.520Z,99389.73
2019-05-25T14:06:22.267Z,99383.84
2019-05-25T14:08:43.442Z,99377.98
2019-05-25T14:11:04.143Z,99382.22
2019-05-25T14:13:24.812Z,99382.28
2019-05-25T14:15:45.987Z,99377.78
2019-05-25T14:18:06.844Z,99370.70
2019-05-25T14:20:27.523Z,99376.42
2019-05-25T14:22:48.198Z,99381.67
2019-05-25T14:25:09.068Z,99385.30
2019-05-25T14:27:29.643Z,99377.07
2019-05-25T14:29:50.671Z,99373.72
2019-05-25T14:32:11.640Z,99377.91
2019-05-25T14:34:32.759Z,99376.31
2019-05-25T14:36:53.663Z,99374.30
2019-05-25T14:39:15.839Z,99376.42
2019-05-25T14:41:36.882Z,99374.66
2019-05-25T14:43:58.032Z,99375.57
2019-05-25T14:46:27.347Z,99376.69
2019-05-25T14:48:41.526Z,99370.59
2019-05-25T14:51:02.381Z,99369.39
2019-05-25T14:53:22.935Z,99365.09
2019-05-25T14:55:43.683Z,99361.40
2019-05-25T14:58:04.203Z,99361.55
2019-05-25T15:00:25.003Z,99359.20
2019-05-25T15:02:46.084Z,99361.17
2019-05-25T15:05:06.621Z,99364.39
2019-05-25T15:07:28.033Z,99356.05
2019-05-25T15:09:49.111Z,99355.69
2019-05-25T15:12:09.780Z,99355.89
2019-05-25T15:14:31.161Z,99346.78
2019-05-25T15:16:53.262Z,99349.88
2019-05-25T15:19:15.412Z,99352.11
2019-05-25T15:21:36.698Z,99347.84
2019-05-25T15:23:57.808Z,99351.42
2019-05-25T15:26:18.256Z,99349.08
2019-05-25T15:28:38.821Z,99347.51
2019-05-25T15:30:59.347Z,99346.97
2019-05-25T15:33:20.622Z,99350.31
2019-05-25T15:35:42.150Z,99351.13
2019-05-25T15:38:03.022Z,99346.25
2019-05-25T15:40:25.917Z,99346.00
2019-05-25T15:42:47.344Z,99353.92
2019-05-25T15:45:09.054Z,99347.42
2019-05-25T15:47:29.568Z,99346.67
2019-05-25T15:49:50.892Z,99356.76
2019-05-25T15:52:11.303Z,99351.58
2019-05-25T15:54:32.078Z,99352.95
2019-05-25T15:56:52.567Z,99356.80
2019-05-25T15:59:13.031Z,99354.48
2019-05-25T16:01:33.391Z,99357.19
2019-05-25T16:03:54.594Z,99351.10
2019-05-25T16:06:15.054Z,99365.63
2019-05-25T16:08:35.639Z,99347.14
2019-05-25T16:10:57.476Z,99341.44
2019-05-25T16:13:17.984Z,99339.17
2019-05-25T16:15:38.684Z,99346.25
2019-05-25T16:17:59.448Z,99336.91
2019-05-25T16:20:20.452Z,99335.02
2019-05-25T16:22:41.883Z,99339.21
2019-05-25T16:25:03.081Z,99340.56
2019-05-25T16:27:24.152Z,99327.20
2019-05-25T16:29:45.644Z,99336.19
2019-05-25T16:32:06.528Z,99333.89
2019-05-25T16:34:27.948Z,99332.17
2019-05-25T16:36:49.729Z,99326.16
2019-05-25T16:39:10.620Z,99325.92
2019-05-25T16:41:32.951Z,99332.98
2019-05-25T16:46:08.861Z,99325.77
2019-05-25T16:48:30.865Z,99323.81
2019-05-25T16:50:51.973Z,99318.91
2019-05-25T16:53:13.033Z,99320.19
2019-05-25T16:55:34.139Z,99309.61
2019-05-25T16:57:56.446Z,99307.66
2019-05-25T17:00:17.381Z,99316.08
2019-05-25T17:02:38.743Z,99310.36
2019-05-25T17:04:59.187Z,99310.05
2019-05-25T17:07:20.101Z,99315.02
2019-05-25T17:09:41.304Z,99307.09
2019-05-25T17:12:03.699Z,99306.31
2019-05-25T17:14:23.780Z,99311.83
2019-05-25T17:16:44.604Z,99306.24
2019-05-25T17:19:05.275Z,99311.14
2019-05-25T17:21:25.818Z,99317.98
2019-05-25T17:23:47.139Z,99319.94
2019-05-25T17:26:07.959Z,99321.56
2019-05-25T17:28:28.846Z,99318.95
2019-05-25T17:30:49.906Z,99314.35
2019-05-25T17:33:10.470Z,99315.50
2019-05-25T17:35:30.915Z,99320.77
2019-05-25T17:37:51.326Z,99324.36
2019-05-25T17:40:11.664Z,99322.70
2019-05-25T17:42:32.106Z,99317.36
2019-05-25T17:44:52.720Z,99323.95
2019-05-25T17:47:13.771Z,99324.19
2019-05-25T17:49:34.874Z,99329.53
2019-05-25T17:51:55.896Z,99326.45
2019-05-25T17:54:16.589Z,99330.41
2019-05-25T17:56:37.340Z,99328.68
2019-05-25T17:58:58.152Z,99331.31
2019-05-25T18:01:18.933Z,99334.02
2019-05-25T18:03:40.241Z,99340.47
2019-05-25T18:06:00.950Z,99339.48
2019-05-25T18:08:21.846Z,99334.00
2019-05-25T18:10:52.859Z,99340.08
2019-05-25T18:13:04.593Z,99339.55
2019-05-25T18:15:25.998Z,99345.36
2019-05-25T18:17:47.726Z,99340.39
2019-05-25T18:20:08.067Z,99343.83
2019-05-25T18:22:29.311Z,99344.63
2019-05-25T18:24:50.114Z,99345.75
2019-05-25T18:27:11.379Z,99350.13
2019-05-25T18:29:32.446Z,99348.40
2019-05-25T18:31:53.576Z,99350.64
2019-05-25T18:34:22.107Z,99349.29
2019-05-25T18:36:37.352Z,99345.23
2019-05-25T18:38:58.110Z,99352.53
2019-05-25T18:41:19.058Z,99348.91
2019-05-25T18:43:39.844Z,99348.02
2019-05-25T18:46:00.973Z,99349.06
2019-05-25T18:48:21.917Z,99341.27
2019-05-25T18:50:43.255Z,99345.70
2019-05-25T18:53:04.107Z,99345.08
2019-05-25T18:55:26.159Z,99349.88
2019-05-25T18:57:47.442Z,99353.63
2019-05-25T19:00:08.325Z,99353.86
2019-05-25T19:02:29.415Z,99352.73
2019-05-25T19:04:59.033Z,99343.55
2019-05-25T19:07:13.391Z,99342.66
2019-05-25T19:09:34.110Z,99338.37
2019-05-25T19:11:55.832Z,99338.37
2019-05-25T19:14:17.016Z,99335.36
2019-05-25T19:16:37.924Z,99340.03
2019-05-25T19:18:59.410Z,99335.90
2019-05-25T19:21:20.423Z,99335.90
2019-05-25T19:23:42.397Z,99351.20
2019-05-25T19:26:10.333Z,99351.47
2019-05-25T19:28:26.166Z,99350.47
2019-05-25T19:30:49.183Z,99360.89
2019-05-25T19:33:10.952Z,99359.53
2019-05-25T19:35:32.176Z,99364.33
2019-05-25T19:37:52.854Z,99359.53
2019-05-25T19:40:13.322Z,99364.52
2019-05-25T19:42:34.449Z,99362.20
2019-05-25T19:44:55.561Z,99369.34
2019-05-25T19:47:20.428Z,99367.53
2019-05-25T19:49:41.684Z,99369.50
2019-05-25T19:52:02.046Z,99369.81
2019-05-25T19:54:22.795Z,99368.77
2019-05-25T19:56:44.071Z,99370.66
2019-05-25T19:59:04.832Z,99371.47
2019-05-25T20:01:26.878Z,99370.42
2019-05-25T20:06:14.084Z,99377.48
2019-05-25T20:08:35.312Z,99381.55
2019-05-25T20:10:56.038Z,99384.24
2019-05-25T20:15:43.551Z,99392.35
2019-05-25T20:18:11.063Z,99386.64
2019-05-25T20:20:31.792Z,99395.67
2019-05-25T20:22:52.890Z,99388.34
2019-05-25T20:25:14.411Z,99393.16
2019-05-25T20:27:35.763Z,99390.45
2019-05-25T20:29:56.689Z,99393.30
2019-05-25T20:34:56.233Z,99400.31
2019-05-25T20:37:16.669Z,99404.56
2019-05-25T20:39:37.546Z,99400.50
2019-05-25T20:41:57.850Z,99403.59
2019-05-25T20:44:18.308Z,99411.23
2019-05-25T20:46:39.919Z,99411.85
2019-05-25T20:49:00.752Z,99409.22
2019-05-25T20:51:21.042Z,99416.59
2019-05-25T20:53:42.359Z,99418.02
2019-05-25T20:56:03.477Z,99419.48
2019-05-25T20:58:25.159Z,99414.58
2019-05-25T21:00:46.895Z,99416.04
2019-05-25T21:03:08.522Z,99417.39
2019-05-25T21:05:29.452Z,99409.86
2019-05-25T21:07:50.691Z,99410.70
2019-05-25T21:10:11.641Z,99413.91
2019-05-25T21:12:32.832Z,99405.80
2019-05-25T21:14:54.069Z,99415.27
2019-05-25T21:17:15.324Z,99410.16
2019-05-25T21:19:36.287Z,99412.13
2019-05-25T21:21:57.362Z,99415.64
2019-05-25T21:24:18.852Z,99412.13
2019-05-25T21:26:39.422Z,99407.25
2019-05-25T21:29:00.396Z,99409.96
2019-05-25T21:31:23.734Z,99413.78
2019-05-25T21:33:45.033Z,99412.73
2019-05-25T21:36:08.628Z,99411.16
2019-05-25T21:38:27.901Z,99408.98
2019-05-25T21:40:48.561Z,99406.79
2019-05-25T21:43:09.082Z,99406.48
2019-05-25T21:45:34.566Z,99410.54
2019-05-25T21:47:56.286Z,99408.61
2019-05-25T21:50:17.414Z,99409.11
2019-05-25T21:52:39.076Z,99415.57
2019-05-25T21:55:01.036Z,99414.22
2019-05-25T21:57:22.097Z,99411.52
2019-05-25T21:59:43.094Z,99412.56
2019-05-25T22:02:03.863Z,99407.16
2019-05-25T22:04:25.903Z,99406.84
2019-05-25T22:06:47.263Z,99403.86
2019-05-25T22:09:08.715Z,99404.14
2019-05-25T22:11:29.583Z,99400.08
2019-05-25T22:13:51.000Z,99397.68
2019-05-25T22:16:12.891Z,99396.33
2019-05-25T22:18:33.926Z,99393.92
2019-05-25T22:20:54.695Z,99391.22
2019-05-25T22:23:15.307Z,99391.77
2019-05-25T22:25:37.055Z,99388.52
2019-05-25T22:27:58.218Z,99392.07
2019-05-25T22:30:19.364Z,99393.42
2019-05-25T22:32:41.012Z,99392.38
2019-05-25T22:35:01.835Z,99392.07
2019-05-25T22:37:22.932Z,99390.17
2019-05-25T22:39:43.455Z,99386.96
2019-05-25T22:42:03.939Z,99384.77
2019-05-25T22:44:24.872Z,99385.61
2019-05-25T22:46:45.319Z,99382.06
2019-05-25T22:49:05.838Z,99379.35
2019-05-25T22:51:26.877Z,99383.72
2019-05-25T22:53:47.240Z,99378.84
2019-05-25T22:56:08.295Z,99375.83
2019-05-25T22:58:28.841Z,99371.77
2019-05-25T23:00:49.587Z,99370.92
2019-05-25T23:03:09.849Z,99370.42
2019-05-25T23:05:30.642Z,99368.53
2019-05-25T23:07:51.593Z,99372.08
2019-05-25T23:10:12.338Z,99362.61
2019-05-25T23:12:33.098Z,99356.13
2019-05-25T23:14:54.144Z,99356.42
2019-05-25T23:18:22.981Z,99354.94
2019-05-25T23:20:43.706Z,99361.84
2019-05-25T23:23:04.242Z,99368.09
2019-05-25T23:25:25.706Z,99364.03
2019-05-25T23:27:46.412Z,99358.31
2019-05-25T23:30:07.704Z,99352.37
2019-05-25T23:32:28.511Z,99350.50
2019-05-25T23:34:50.257Z,99349.16
2019-05-25T23:37:14.868Z,99346.75
2019-05-25T23:39:32.528Z,99348.11
2019-05-25T23:41:53.318Z,99347.26
2019-05-25T23:44:13.710Z,99348.61
2019-05-25T23:46:34.255Z,99346.95
2019-05-25T23:48:55.061Z,99345.09
2019-05-25T23:51:16.378Z,99349.45
2019-05-25T23:53:37.111Z,99345.40
2019-05-25T23:55:57.985Z,99344.35
2019-05-25T23:58:18.668Z,99346.52
